Time;durP1;ratioP1;P1;durP2;ratioP2;P2;SDS_P1;SDS_P2;PMS_P1;PMS_P2;Temp;Humidity;BMP_temperature;BMP_pressure;BME280_temperature;BME280_humidity;BME280_pressure;Samples;Min_cycle;Max_cycle;Signal;HPM_P1;HPM_P2
2022/12/22 03:27:24;;;;;;;2.80;0.20;;;7.40;99.90;;;;;;5057068;28;20041;-66
2022/12/22 03:29:50;;;;;;;;;;;7.50;99.90;;;;;;5058218;28;20516;-66
2022/12/22 03:32:15;;;;;;;0.10;0.10;;;7.50;99.90;;;;;;5060031;28;19980;-66
2022/12/22 03:34:41;;;;;;;;;;;7.50;99.90;;;;;;5062295;28;20461;-66
2022/12/22 03:37:07;;;;;;;40.78;1.27;;;7.50;99.90;;;;;;5059953;28;20342;-66
2022/12/22 03:39:32;;;;;;;;;;;7.50;99.90;;;;;;5064244;28;20484;-66
2022/12/22 03:47:27;;;;;;;0.55;0.10;;;7.40;99.90;;;;;;5061085;28;20102;-66
2022/12/22 03:49:53;;;;;;;;;;;7.50;99.90;;;;;;5063351;28;20045;-66
2022/12/22 03:52:18;;;;;;;0.10;0.10;;;7.50;99.90;;;;;;5060426;28;19920;-66
2022/12/22 03:54:44;;;;;;;;;;;7.50;99.90;;;;;;5065571;28;20037;-66
2022/12/22 03:57:09;;;;;;;2.05;0.22;;;7.50;99.90;;;;;;5067281;28;20288;-66
2022/12/22 03:59:35;;;;;;;0.10;0.10;;;7.60;99.90;;;;;;5068417;28;20028;-66
2022/12/22 04:02:00;;;;;;;;;;;7.60;99.90;;;;;;5067356;28;20032;-65
2022/12/22 04:04:26;;;;;;;0.10;0.10;;;7.60;99.90;;;;;;5065287;28;20010;-66
2022/12/22 04:06:53;;;;;;;0.77;0.20;;;7.60;99.90;;;;;;5060914;28;20064;-65
2022/12/22 04:09:18;;;;;;;0.55;0.10;;;7.60;99.90;;;;;;5068526;28;20056;-65
2022/12/22 04:14:45;;;;;;;1.40;0.10;;;7.70;99.90;;;;;;5021672;28;19930;-65
2022/12/22 04:17:11;;;;;;;;;;;7.70;99.90;;;;;;5049617;28;20641;-65
2022/12/22 04:19:36;;;;;;;0.10;0.10;;;7.70;99.90;;;;;;5063267;28;19916;-66
2022/12/22 04:22:02;;;;;;;;;;;7.70;99.90;;;;;;5062837;28;20044;-66
2022/12/22 04:24:28;;;;;;;0.10;0.10;;;7.70;99.90;;;;;;5059623;28;19916;-66
2022/12/22 04:26:53;;;;;;;;;;;7.80;99.90;;;;;;5063295;28;20156;-66
2022/12/22 04:29:19;;;;;;;0.10;0.10;;;7.80;99.90;;;;;;5065318;28;19920;-66
2022/12/22 04:31:44;;;;;;;0.10;0.10;;;7.80;99.90;;;;;;5056583;28;20040;-66
2022/12/22 04:34:10;;;;;;;0.73;0.10;;;7.80;99.90;;;;;;5059833;28;20060;-64
2022/12/22 04:36:36;;;;;;;0.10;0.10;;;7.80;99.90;;;;;;5054043;28;20520;-66
2022/12/22 04:39:02;;;;;;;;;;;7.80;99.90;;;;;;5051632;28;20095;-64
2022/12/22 04:41:27;;;;;;;0.13;0.13;;;7.80;99.90;;;;;;5048308;28;19921;-66
2022/12/22 04:43:53;;;;;;;;;;;7.80;99.90;;;;;;5054902;28;20087;-65
2022/12/22 04:46:19;;;;;;;0.38;0.20;;;7.80;99.90;;;;;;5054935;28;19935;-65
2022/12/22 04:48:44;;;;;;;0.38;0.20;;;7.80;99.90;;;;;;5061797;28;20068;-66
2022/12/22 04:51:10;;;;;;;;;;;7.80;99.90;;;;;;5053647;28;20067;-64
2022/12/22 04:53:35;;;;;;;0.70;0.20;;;7.90;99.90;;;;;;5061495;28;20456;-66
2022/12/22 04:56:02;;;;;;;;;;;7.80;99.90;;;;;;5052369;28;20118;-64
2022/12/22 04:58:28;;;;;;;0.38;0.10;;;7.80;99.90;;;;;;5057218;28;20017;-66
2022/12/22 05:00:54;;;;;;;;;;;7.90;99.90;;;;;;5050003;28;20703;-66
2022/12/22 05:03:20;;;;;;;1.55;0.20;;;7.90;99.90;;;;;;5066455;28;19923;-66
2022/12/22 05:05:45;;;;;;;;;;;7.90;99.90;;;;;;5067291;28;20044;-64
2022/12/22 05:08:11;;;;;;;0.35;0.20;;;7.90;99.90;;;;;;5059889;28;20002;-65
2022/12/22 05:10:37;;;;;;;1.23;0.30;;;7.90;99.90;;;;;;5059255;28;20040;-66
2022/12/22 05:13:02;;;;;;;;;;;7.90;99.90;;;;;;5059351;28;20397;-65
2022/12/22 05:15:31;;;;;;;1.17;0.20;;;7.90;99.90;;;;;;5064476;28;20015;-64
2022/12/22 05:17:57;;;;;;;1.10;0.30;;;8.00;99.90;;;;;;5060877;28;20029;-64
2022/12/22 05:20:24;;;;;;;0.15;0.15;;;8.00;99.90;;;;;;5065628;28;20638;-64
2022/12/22 05:22:49;;;;;;;0.10;0.10;;;8.00;99.90;;;;;;5060351;28;20521;-66
2022/12/22 05:25:15;;;;;;;;;;;8.00;99.90;;;;;;5051301;28;20036;-67
2022/12/22 05:27:42;;;;;;;0.10;0.10;;;8.00;99.90;;;;;;5061397;28;20047;-66
2022/12/22 05:30:09;;;;;;;0.22;0.20;;;8.00;99.90;;;;;;5059133;28;20041;-66
2022/12/22 05:32:35;;;;;;;0.73;0.28;;;8.00;99.90;;;;;;5075156;28;20041;-66
2022/12/22 05:35:01;;;;;;;;;;;8.00;99.90;;;;;;5071675;28;20105;-66
2022/12/22 05:37:27;;;;;;;4.40;0.20;;;8.00;99.90;;;;;;5078194;28;19939;-66
2022/12/22 05:39:53;;;;;;;1.30;0.28;;;8.00;99.90;;;;;;5073096;28;20675;-66
2022/12/22 05:42:34;;;;;;;;;;;8.00;99.90;;;;;;5078201;28;20111;-66
2022/12/22 05:45:04;;;;;;;2.28;0.40;;;7.90;99.90;;;;;;5086106;28;19927;-66
2022/12/22 05:47:30;;;;;;;1.05;0.30;;;7.90;99.90;;;;;;5079642;28;20052;-66
2022/12/22 05:49:55;;;;;;;;;;;7.90;99.90;;;;;;5073829;28;20032;-66
2022/12/22 05:52:21;;;;;;;5.72;0.65;;;7.90;99.90;;;;;;5070346;28;20342;-66
2022/12/22 05:54:47;;;;;;;;;;;7.90;99.90;;;;;;5071430;28;20394;-65
2022/12/22 05:57:12;;;;;;;3.42;0.52;;;7.90;99.90;;;;;;5077799;28;19974;-66
2022/12/22 05:59:38;;;;;;;11.75;0.70;;;7.90;99.90;;;;;;5079041;28;20484;-66
2022/12/22 06:02:03;;;;;;;2.00;0.80;;;7.80;99.90;;;;;;5076741;28;20028;-66
2022/12/22 06:04:29;;;;;;;32.55;1.25;;;7.80;99.90;;;;;;5085070;28;20036;-67
2022/12/22 06:06:54;;;;;;;2.28;0.60;;;7.80;99.90;;;;;;5072166;28;20131;-66
2022/12/22 06:09:20;;;;;;;;;;;7.80;99.90;;;;;;5073975;28;20037;-66
2022/12/22 06:11:45;;;;;;;1.85;0.40;;;7.80;99.90;;;;;;5068531;28;20629;-66
2022/12/22 06:14:11;;;;;;;;;;;7.80;99.90;;;;;;5071729;28;20032;-66
2022/12/22 06:16:36;;;;;;;1.95;0.40;;;7.80;99.90;;;;;;5064397;28;19938;-66
2022/12/22 06:19:02;;;;;;;;;;;7.90;99.90;;;;;;5072504;28;20036;-66
2022/12/22 06:21:27;;;;;;;0.82;0.35;;;7.90;99.90;;;;;;5064285;28;19967;-66
2022/12/22 06:23:54;;;;;;;;;;;7.90;99.90;;;;;;5077629;28;20407;-66
2022/12/22 06:26:20;;;;;;;26.15;1.25;;;7.90;99.90;;;;;;5068593;28;19928;-66
2022/12/22 06:28:46;;;;;;;14.90;0.90;;;7.90;99.90;;;;;;5066446;28;20104;-66
2022/12/22 06:31:12;;;;;;;2.13;0.52;;;7.90;99.90;;;;;;5083653;28;20031;-68
2022/12/22 06:33:37;;;;;;;;;;;7.80;99.90;;;;;;5092242;28;20447;-66
2022/12/22 06:36:05;;;;;;;0.30;0.20;;;7.80;99.90;;;;;;5084794;28;19939;-67
2022/12/22 06:38:30;;;;;;;0.20;0.20;;;7.80;99.90;;;;;;5077565;28;20043;-68
2022/12/22 06:40:56;;;;;;;;;;;7.80;99.90;;;;;;5089226;28;20059;-67
2022/12/22 06:43:22;;;;;;;1.50;0.20;;;7.80;99.90;;;;;;5069870;28;19967;-66
2022/12/22 06:45:47;;;;;;;;;;;7.90;99.90;;;;;;5073710;28;20040;-67
2022/12/22 06:48:13;;;;;;;1.17;0.20;;;7.80;99.90;;;;;;5077840;28;19916;-66
2022/12/22 06:50:38;;;;;;;;;;;7.80;99.90;;;;;;5069078;28;20040;-67
2022/12/22 06:53:05;;;;;;;3.40;0.63;;;7.80;99.90;;;;;;5076078;28;19927;-68
2022/12/22 06:55:31;;;;;;;1.55;0.43;;;7.80;99.90;;;;;;5072411;28;20453;-66
2022/12/22 06:57:56;;;;;;;;;;;7.80;99.90;;;;;;5075406;28;20108;-66
2022/12/22 07:00:22;;;;;;;0.20;0.15;;;7.80;99.90;;;;;;5071579;28;19916;-67
2022/12/22 07:02:47;;;;;;;;;;;7.80;99.90;;;;;;5072523;28;20040;-66
2022/12/22 07:05:14;;;;;;;1.95;0.28;;;7.70;99.90;;;;;;5067547;28;19981;-66
2022/12/22 07:07:40;;;;;;;6.15;0.35;;;7.70;99.90;;;;;;5071264;28;20127;-67
2022/12/22 07:10:07;;;;;;;1.60;0.30;;;7.80;99.90;;;;;;5060427;28;20035;-67
2022/12/22 07:12:32;;;;;;;0.45;0.20;;;7.70;99.90;;;;;;5070182;28;20036;-67
2022/12/22 07:14:58;;;;;;;;;;;7.70;99.90;;;;;;5071470;28;20484;-67
2022/12/22 07:17:24;;;;;;;1.27;0.20;;;7.70;99.90;;;;;;5082341;28;19920;-66
2022/12/22 07:19:49;;;;;;;0.45;0.20;;;7.60;99.90;;;;;;5086193;28;20399;-67
2022/12/22 07:22:15;;;;;;;0.75;0.30;;;7.60;99.90;;;;;;5073853;28;20036;-66
2022/12/22 07:24:40;;;;;;;;;;;7.60;99.90;;;;;;5095381;28;20471;-66
2022/12/22 07:27:06;;;;;;;1.50;0.30;;;7.60;99.90;;;;;;5077022;28;19920;-65
2022/12/22 07:29:32;;;;;;;0.40;0.30;;;7.60;99.90;;;;;;5099624;28;20051;-66
2022/12/22 07:31:58;;;;;;;7.68;0.52;;;7.70;99.90;;;;;;5080789;28;20119;-69
2022/12/22 07:34:23;;;;;;;1.10;0.30;;;7.70;99.90;;;;;;5089562;28;20051;-66
2022/12/22 07:36:49;;;;;;;;;;;7.70;99.90;;;;;;5078909;28;20097;-67
2022/12/22 07:39:15;;;;;;;2.20;0.20;;;7.70;99.90;;;;;;5091017;28;19961;-66
2022/12/22 07:44:24;;;;;;;0.60;0.30;;;7.60;99.90;;;;;;5078932;28;19997;-64
2022/12/22 07:46:50;;;;;;;;;;;7.60;99.90;;;;;;5079555;28;20082;-66
2022/12/22 07:52:00;;;;;;;6.15;1.30;;;7.60;99.90;;;;;;5069062;28;20036;-64
2022/12/22 07:54:26;;;;;;;;;;;7.70;99.90;;;;;;5077906;28;20055;-65
2022/12/22 07:56:52;;;;;;;1.27;0.80;;;7.70;99.90;;;;;;5081103;28;20281;-65
2022/12/22 07:59:18;;;;;;;3.78;0.80;;;7.60;99.90;;;;;;5077686;28;20043;-64
2022/12/22 08:01:44;;;;;;;;;;;7.60;99.90;;;;;;5076480;28;20032;-63
2022/12/22 08:04:11;;;;;;;2.25;1.50;;;7.60;99.90;;;;;;5078965;28;19923;-64
2022/12/22 08:06:37;;;;;;;4.38;1.08;;;7.60;99.90;;;;;;5075714;28;20044;-64
2022/12/22 08:09:03;;;;;;;;;;;7.60;99.90;;;;;;5082588;28;20041;-63
2022/12/22 08:11:29;;;;;;;5.07;1.42;;;7.60;99.90;;;;;;5078087;28;19998;-62
2022/12/22 08:13:54;;;;;;;;;;;7.60;99.90;;;;;;5070915;28;20536;-65
2022/12/22 08:16:21;;;;;;;2.55;1.13;;;7.60;99.90;;;;;;5080731;28;20043;-65
2022/12/22 08:18:47;;;;;;;1.70;1.10;;;7.60;99.90;;;;;;5084784;28;20044;-66
2022/12/22 08:21:13;;;;;;;2.35;0.95;;;7.60;99.90;;;;;;5072081;28;20169;-64
2022/12/22 08:23:38;;;;;;;;;;;7.60;99.90;;;;;;5068575;28;20097;-65
2022/12/22 08:26:10;;;;;;;1.00;0.80;;;7.60;99.90;;;;;;5069381;28;20060;-64
2022/12/22 08:28:46;;;;;;;1.92;0.60;;;7.60;99.90;;;;;;5068109;28;20123;-63
2022/12/22 08:31:12;;;;;;;1.35;0.63;;;7.60;99.90;;;;;;5074308;28;20029;-64
2022/12/22 08:33:38;;;;;;;0.82;0.60;;;7.60;99.90;;;;;;5071124;28;20037;-65
2022/12/22 08:36:05;;;;;;;1.30;0.60;;;7.50;99.90;;;;;;5074104;28;20035;-65
2022/12/22 08:38:31;;;;;;;1.00;0.73;;;7.50;99.90;;;;;;5080565;28;20047;-65
2022/12/22 08:40:56;;;;;;;;;;;7.60;99.90;;;;;;5080994;28;20101;-66
2022/12/22 08:43:23;;;;;;;2.00;0.73;;;7.60;99.90;;;;;;5085381;28;19931;-65
2022/12/22 08:45:49;;;;;;;2.55;0.60;;;7.60;99.90;;;;;;5081452;28;20044;-65
2022/12/22 08:48:15;;;;;;;;;;;7.70;99.90;;;;;;5074946;28;20044;-65
2022/12/22 08:50:40;;;;;;;3.05;0.70;;;7.70;99.90;;;;;;5074944;28;19920;-65
2022/12/22 08:53:08;;;;;;;1.85;0.22;;;7.70;99.90;;;;;;5072491;28;20119;-66
2022/12/22 08:55:34;;;;;;;1.85;0.43;;;7.80;99.90;;;;;;5069841;28;20101;-66
2022/12/22 08:58:00;;;;;;;;;;;7.80;99.90;;;;;;5072054;28;20044;-63
2022/12/22 09:00:26;;;;;;;2.38;0.45;;;7.90;99.90;;;;;;5076472;28;19977;-65
2022/12/22 09:02:51;;;;;;;0.85;0.20;;;7.90;99.90;;;;;;5075044;28;20036;-65
2022/12/22 09:05:17;;;;;;;;;;;8.00;99.90;;;;;;5070656;28;20036;-65
2022/12/22 09:07:45;;;;;;;0.60;0.30;;;8.00;99.90;;;;;;5068138;28;19927;-65
2022/12/22 09:10:12;;;;;;;1.20;0.20;;;8.10;99.90;;;;;;5079922;28;20488;-65
2022/12/22 09:12:38;;;;;;;1.88;0.30;;;8.20;99.90;;;;;;5072144;28;20041;-65
2022/12/22 09:15:05;;;;;;;;;;;8.20;99.90;;;;;;5077460;28;20082;-65
2022/12/22 09:17:31;;;;;;;1.83;0.30;;;8.30;99.90;;;;;;5080719;28;19920;-65
2022/12/22 09:19:57;;;;;;;;;;;8.40;99.90;;;;;;5081434;28;20048;-65
2022/12/22 09:22:22;;;;;;;0.88;0.30;;;8.40;99.90;;;;;;5074988;28;20513;-65
2022/12/22 09:24:48;;;;;;;;;;;8.40;99.90;;;;;;5076404;28;20535;-65
2022/12/22 09:27:13;;;;;;;0.20;0.20;;;8.50;99.90;;;;;;5070986;28;20359;-65
2022/12/22 09:29:39;;;;;;;;;;;8.50;99.90;;;;;;5077909;28;20040;-63
2022/12/22 09:32:05;;;;;;;0.20;0.20;;;8.60;99.90;;;;;;5070633;28;19916;-65
2022/12/22 09:34:31;;;;;;;;;;;8.60;99.90;;;;;;5071729;28;20051;-65
2022/12/22 09:36:56;;;;;;;0.30;0.30;;;8.60;99.90;;;;;;5079374;28;19920;-65
2022/12/22 09:39:22;;;;;;;0.52;0.30;;;8.60;99.90;;;;;;5068848;28;20045;-65
2022/12/22 09:41:56;;;;;;;0.45;0.30;;;8.60;99.90;;;;;;5071628;28;20147;-65
2022/12/22 09:44:32;;;;;;;0.40;0.25;;;8.60;99.90;;;;;;5075069;28;20048;-65
2022/12/22 09:47:01;;;;;;;0.50;0.50;;;8.60;99.90;;;;;;5075302;28;20052;-64
2022/12/22 09:49:27;;;;;;;0.50;0.40;;;8.50;99.90;;;;;;5067522;28;20362;-64
2022/12/22 09:52:01;;;;;;;0.40;0.35;;;8.50;99.90;;;;;;5075198;28;20492;-65
2022/12/22 09:54:27;;;;;;;2.88;0.70;;;8.40;99.90;;;;;;5076027;28;20106;-65
2022/12/22 09:56:53;;;;;;;0.60;0.55;;;8.40;99.90;;;;;;5074901;28;20467;-65
2022/12/22 09:59:20;;;;;;;;;;;8.40;99.90;;;;;;5077774;28;20028;-65
2022/12/22 10:02:32;;;;;;;0.60;0.50;;;8.40;99.90;;;;;;5070048;28;19942;-66
2022/12/22 10:05:29;;;;;;;0.90;0.60;;;8.30;99.90;;;;;;5033175;28;20040;-65
2022/12/22 10:07:59;;;;;;;;;;;8.30;99.90;;;;;;5025716;28;20048;-65
2022/12/22 10:10:28;;;;;;;2.33;0.70;;;8.30;99.90;;;;;;5069610;28;19920;-66
2022/12/22 10:12:55;;;;;;;1.05;0.70;;;8.30;99.90;;;;;;5078103;28;20097;-65
2022/12/22 10:15:22;;;;;;;1.60;0.80;;;8.40;99.90;;;;;;5071388;28;20036;-66
2022/12/22 10:18:06;;;;;;;2.50;0.80;;;8.30;99.90;;;;;;5067833;28;20044;-65
2022/12/22 10:20:32;;;;;;;2.25;0.70;;;8.30;99.90;;;;;;5076926;28;20126;-66
2022/12/22 10:23:13;;;;;;;;;;;8.40;99.90;;;;;;5075770;28;20134;-65
2022/12/22 10:26:05;;;;;;;1.45;0.80;;;8.40;99.90;;;;;;5066798;28;19924;-65
2022/12/22 10:28:39;;;;;;;0.40;0.40;;;8.50;99.90;;;;;;5070295;28;20040;-65
2022/12/22 10:31:25;;;;;;;0.70;0.57;;;8.50;99.90;;;;;;5072953;28;20029;-65
2022/12/22 10:34:08;;;;;;;0.50;0.40;;;8.50;99.90;;;;;;5065123;28;20546;-65
2022/12/22 10:36:34;;;;;;;0.43;0.32;;;8.30;99.90;;;;;;5070356;28;20135;-65
2022/12/22 10:39:02;;;;;;;;;;;8.30;99.90;;;;;;5074402;28;20134;-65
2022/12/22 10:41:31;;;;;;;0.68;0.60;;;8.30;99.90;;;;;;5072295;28;20014;-65
2022/12/22 10:44:07;;;;;;;0.55;0.45;;;8.30;99.90;;;;;;5067913;28;20509;-64
2022/12/22 10:46:38;;;;;;;1.00;0.55;;;8.20;99.90;;;;;;5071815;28;20137;-65
2022/12/22 10:49:22;;;;;;;4.57;0.60;;;8.20;99.90;;;;;;5072918;28;20033;-65
2022/12/22 10:52:23;;;;;;;1.00;0.70;;;8.20;99.90;;;;;;5072756;28;20103;-65
2022/12/22 10:54:49;;;;;;;1.58;0.73;;;8.20;99.90;;;;;;5074432;28;20631;-65
2022/12/22 10:57:15;;;;;;;;;;;8.30;99.90;;;;;;5080261;28;20047;-63
2022/12/22 10:59:49;;;;;;;1.13;0.80;;;8.30;99.90;;;;;;5078637;28;19960;-64
2022/12/22 11:02:25;;;;;;;1.48;0.75;;;8.20;99.90;;;;;;5082236;28;20536;-66
2022/12/22 11:04:52;;;;;;;1.48;1.00;;;8.30;99.90;;;;;;5097361;28;20111;-61
2022/12/22 11:07:19;;;;;;;1.25;0.88;;;8.20;99.90;;;;;;5069536;28;20048;-62
2022/12/22 11:09:45;;;;;;;1.85;0.85;;;8.20;99.90;;;;;;5076439;28;20043;-66
2022/12/22 11:12:13;;;;;;;;;;;8.20;99.90;;;;;;5082963;28;20122;-66
2022/12/22 11:15:00;;;;;;;1.35;0.63;;;8.20;99.90;;;;;;5081455;28;20035;-66
2022/12/22 11:17:32;;;;;;;;;;;8.30;99.90;;;;;;5084604;28;20047;-68
2022/12/22 11:20:22;;;;;;;0.95;0.70;;;8.30;99.90;;;;;;5075743;28;19972;-68
2022/12/22 11:22:57;;;;;;;2.78;1.00;;;8.40;99.90;;;;;;5082030;28;20085;-64
2022/12/22 11:25:25;;;;;;;2.13;0.80;;;8.40;99.90;;;;;;5080063;28;20075;-65
2022/12/22 11:28:03;;;;;;;1.70;0.93;;;8.40;99.90;;;;;;5083015;28;20036;-67
2022/12/22 11:30:54;;;;;;;1.50;0.90;;;8.40;99.90;;;;;;5076562;28;20484;-66
2022/12/22 11:33:43;;;;;;;2.63;1.50;;;8.40;99.90;;;;;;5068249;28;20924;-66
2022/12/22 11:36:22;;;;;;;4.20;1.30;;;8.40;99.90;;;;;;5108992;28;20401;-66
2022/12/22 11:38:52;;;;;;;4.80;1.60;;;8.40;99.90;;;;;;5113548;28;20031;-65
2022/12/22 11:41:30;;;;;;;3.20;1.55;;;8.40;99.90;;;;;;5111675;28;20059;-66
2022/12/22 11:44:29;;;;;;;5.72;1.70;;;8.60;99.90;;;;;;5109028;27;20031;-66
2022/12/22 11:47:16;;;;;;;3.05;1.73;;;8.60;99.90;;;;;;5110791;28;20031;-65
2022/12/22 11:50:04;;;;;;;1.58;1.20;;;8.50;99.90;;;;;;5111735;28;20043;-65
2022/12/22 11:52:39;;;;;;;3.75;1.90;;;8.50;99.90;;;;;;5110162;28;20446;-65
2022/12/22 11:55:33;;;;;;;1.50;1.05;;;8.60;99.90;;;;;;5108851;28;20042;-65
2022/12/22 11:58:06;;;;;;;2.63;1.77;;;8.60;99.90;;;;;;5115673;28;20048;-65
2022/12/22 12:00:41;;;;;;;1.77;1.40;;;8.60;99.90;;;;;;5112077;27;20104;-66
2022/12/22 12:03:28;;;;;;;1.85;1.50;;;8.60;99.90;;;;;;5095388;28;20047;-65
2022/12/22 12:06:33;;;;;;;3.40;1.50;;;8.60;99.90;;;;;;5091950;28;20574;-65
2022/12/22 12:09:29;;;;;;;3.05;1.80;;;8.50;99.90;;;;;;5070176;28;20040;-65
2022/12/22 12:12:16;;;;;;;5.18;1.83;;;8.50;99.90;;;;;;5072539;28;20111;-63
2022/12/22 12:14:42;;;;;;;4.55;2.30;;;8.50;99.90;;;;;;5092794;28;20573;-64
2022/12/22 12:17:14;;;;;;;;;;;8.50;99.90;;;;;;5105996;28;20071;-64
2022/12/22 12:19:55;;;;;;;2.97;1.50;;;8.40;99.90;;;;;;5094297;28;20350;-65
2022/12/22 12:22:39;;;;;;;2.30;1.55;;;8.40;99.90;;;;;;5105820;28;20114;-66
2022/12/22 12:25:22;;;;;;;2.60;1.77;;;8.40;99.90;;;;;;5094364;28;20040;-63
2022/12/22 12:28:05;;;;;;;2.03;1.83;;;8.40;99.90;;;;;;5104658;28;20048;-64
2022/12/22 12:30:51;;;;;;;3.03;2.17;;;8.40;99.90;;;;;;5106241;28;20088;-66
2022/12/22 12:33:43;;;;;;;3.00;2.03;;;8.30;99.90;;;;;;5103828;28;20043;-66
2022/12/22 12:36:23;;;;;;;2.85;2.05;;;8.40;99.90;;;;;;5096456;28;20126;-65
2022/12/22 12:39:11;;;;;;;3.63;2.70;;;8.40;99.90;;;;;;5092152;28;20121;-66
2022/12/22 12:42:10;;;;;;;4.45;2.90;;;8.40;99.90;;;;;;5103429;28;20384;-66
2022/12/22 12:44:36;;;;;;;5.97;4.07;;;8.50;99.90;;;;;;5095206;28;20507;-66
2022/12/22 12:47:19;;;;;;;6.85;4.57;;;8.50;99.90;;;;;;5103492;28;20058;-66
2022/12/22 12:50:30;;;;;;;5.88;3.90;;;8.50;99.90;;;;;;5100618;28;20047;-66
2022/12/22 12:52:56;;;;;;;8.95;5.22;;;8.60;99.90;;;;;;5040852;28;20045;-65
2022/12/22 12:55:32;;;;;;;;;;;8.60;99.90;;;;;;5091129;28;20101;-66
2022/12/22 12:58:00;;;;;;;8.65;5.90;;;8.60;99.90;;;;;;5097749;28;20382;-66
2022/12/22 13:00:32;;;;;;;14.80;8.35;;;8.50;99.90;;;;;;5089097;28;20046;-66
2022/12/22 13:03:03;;;;;;;13.25;7.15;;;8.50;99.90;;;;;;5095484;28;20139;-65
2022/12/22 13:05:47;;;;;;;15.13;7.32;;;8.40;99.90;;;;;;5095314;28;20046;-65
2022/12/22 13:08:18;;;;;;;14.75;7.95;;;8.40;99.90;;;;;;5097110;28;20043;-66
2022/12/22 13:10:52;;;;;;;13.20;7.88;;;8.50;99.90;;;;;;5103551;28;20063;-67
2022/12/22 13:13:21;;;;;;;13.13;8.00;;;8.50;99.90;;;;;;5098020;28;20509;-66
2022/12/22 13:16:03;;;;;;;10.38;6.63;;;8.40;99.90;;;;;;5105817;28;20036;-66
2022/12/22 13:18:31;;;;;;;11.13;7.60;;;8.40;99.90;;;;;;5100818;28;20047;-65
2022/12/22 13:21:05;;;;;;;11.40;7.32;;;8.40;99.90;;;;;;5101495;28;20063;-66
2022/12/22 13:23:35;;;;;;;9.02;6.03;;;8.40;99.90;;;;;;5091033;28;20047;-67
2022/12/22 13:26:13;;;;;;;9.65;6.50;;;8.40;99.90;;;;;;5099236;28;20040;-66
2022/12/22 13:28:47;;;;;;;12.88;7.00;;;8.40;99.90;;;;;;5100996;28;20042;-66
2022/12/22 13:31:21;;;;;;;10.82;6.30;;;8.40;99.90;;;;;;5105655;27;20151;-66
2022/12/22 13:34:11;;;;;;;9.57;5.97;;;8.40;99.90;;;;;;5097699;28;20040;-65
2022/12/22 13:36:37;;;;;;;9.68;6.18;;;8.30;99.90;;;;;;5096378;28;20079;-66
2022/12/22 13:39:10;;;;;;;10.40;6.25;;;8.20;99.90;;;;;;5095867;28;20052;-66
2022/12/22 13:41:39;;;;;;;9.60;6.00;;;8.10;99.90;;;;;;5099850;28;20047;-66
2022/12/22 13:44:14;;;;;;;8.80;5.63;;;8.00;99.90;;;;;;5095105;28;20709;-65
2022/12/22 13:46:41;;;;;;;10.43;5.78;;;8.00;99.90;;;;;;5098435;28;20119;-66
2022/12/22 13:49:13;;;;;;;8.80;5.72;;;7.90;99.90;;;;;;5096509;28;20047;-66
2022/12/22 13:51:39;;;;;;;8.50;4.97;;;7.80;99.90;;;;;;5102525;28;20542;-66
2022/12/22 13:54:07;;;;;;;;;;;7.70;99.90;;;;;;5100077;28;20036;-65
2022/12/22 13:56:36;;;;;;;7.30;4.57;;;7.70;99.90;;;;;;5098644;28;19920;-66
2022/12/22 13:59:02;;;;;;;10.25;4.15;;;7.60;99.90;;;;;;5100941;28;20032;-65
2022/12/22 14:01:29;;;;;;;7.38;4.38;;;7.60;99.90;;;;;;5098793;27;20032;-64
2022/12/22 14:04:02;;;;;;;6.80;4.10;;;7.60;99.90;;;;;;5094318;28;20063;-66
2022/12/22 14:06:32;;;;;;;6.32;4.18;;;7.60;99.90;;;;;;5101530;28;20464;-68
2022/12/22 14:09:22;;;;;;;8.70;4.82;;;7.60;99.90;;;;;;5100599;28;20039;-64
2022/12/22 14:11:49;;;;;;;7.53;4.13;;;7.60;99.90;;;;;;5104991;28;20028;-66
2022/12/22 14:14:19;;;;;;;7.20;3.95;;;7.60;99.90;;;;;;5101657;28;20069;-67
2022/12/22 14:16:48;;;;;;;9.07;4.72;;;7.50;99.90;;;;;;5102962;28;20670;-67
2022/12/22 14:19:16;;;;;;;6.20;3.90;;;7.40;99.90;;;;;;5092566;28;20144;-66
2022/12/22 14:21:43;;;;;;;6.43;3.63;;;7.30;99.90;;;;;;5100779;28;20039;-64
2022/12/22 14:24:18;;;;;;;6.95;4.15;;;7.30;99.90;;;;;;5100644;28;20047;-65
2022/12/22 14:26:44;;;;;;;9.10;4.35;;;7.20;99.90;;;;;;5097392;28;20751;-66
2022/12/22 14:29:16;;;;;;;6.53;3.25;;;7.10;99.90;;;;;;5102987;28;20036;-66
2022/12/22 14:31:57;;;;;;;6.60;3.65;;;7.00;99.90;;;;;;5107898;27;20035;-66
2022/12/22 14:34:29;;;;;;;6.43;3.35;;;7.00;99.90;;;;;;5104005;27;20044;-66
2022/12/22 14:36:56;;;;;;;7.07;3.28;;;6.90;99.90;;;;;;5110262;27;20122;-65
2022/12/22 14:39:25;;;;;;;6.03;3.03;;;6.80;99.90;;;;;;5104190;27;20066;-66
2022/12/22 14:41:53;;;;;;;5.30;3.13;;;6.80;99.90;;;;;;5110020;27;20031;-66
2022/12/22 14:44:21;;;;;;;6.85;3.03;;;6.80;99.90;;;;;;5105826;27;20040;-65
2022/12/22 14:47:14;;;;;;;5.07;2.97;;;6.80;99.90;;;;;;5110353;27;20077;-65
2022/12/22 14:49:57;;;;;;;7.78;3.40;;;6.80;99.90;;;;;;5109625;27;20046;-66
2022/12/22 14:52:36;;;;;;;4.82;2.80;;;6.80;99.90;;;;;;5112204;27;20046;-67
2022/12/22 14:55:04;;;;;;;5.78;2.65;;;6.80;99.90;;;;;;5118399;27;20054;-67
2022/12/22 14:57:39;;;;;;;6.45;3.10;;;6.80;99.90;;;;;;5110728;27;20438;-66
2022/12/22 15:00:07;;;;;;;5.60;3.25;;;6.80;99.90;;;;;;5108596;28;20130;-66
2022/12/22 15:02:38;;;;;;;4.03;2.55;;;6.80;99.90;;;;;;5109169;27;20126;-66
2022/12/22 15:05:25;;;;;;;4.72;2.50;;;6.90;99.90;;;;;;5113639;27;20043;-65
2022/12/22 15:07:53;;;;;;;5.15;2.85;;;6.90;99.90;;;;;;5112660;27;20050;-67
2022/12/22 15:10:19;;;;;;;5.57;2.72;;;7.00;99.90;;;;;;5108162;28;20043;-66
2022/12/22 15:12:45;;;;;;;;;;;6.90;99.90;;;;;;5113079;27;20084;-66
2022/12/22 15:15:20;;;;;;;4.27;2.63;;;6.90;99.90;;;;;;5114146;27;19915;-66
2022/12/22 15:17:52;;;;;;;5.05;2.53;;;6.90;99.90;;;;;;5106774;28;20090;-64
2022/12/22 15:20:21;;;;;;;4.97;2.75;;;6.90;99.90;;;;;;5107111;28;20043;-67
2022/12/22 15:22:47;;;;;;;5.03;2.70;;;6.90;99.90;;;;;;5105515;27;20402;-65
2022/12/22 15:25:19;;;;;;;5.72;2.63;;;6.90;99.90;;;;;;5105972;28;20035;-66
2022/12/22 15:27:45;;;;;;;10.90;2.10;;;6.90;99.90;;;;;;5107291;28;20090;-65
2022/12/22 15:30:13;;;;;;;5.38;3.05;;;6.80;99.90;;;;;;5111615;28;20028;-67
2022/12/22 15:32:40;;;;;;;6.70;3.08;;;6.80;99.90;;;;;;5088546;28;20048;-67
2022/12/22 15:35:24;;;;;;;9.20;3.55;;;6.70;99.90;;;;;;5094085;28;20043;-66
2022/12/22 15:37:49;;;;;;;9.63;3.28;;;6.60;99.90;;;;;;5091159;28;20040;-66
2022/12/22 15:40:20;;;;;;;8.95;3.20;;;6.60;99.90;;;;;;5087196;28;20054;-67
2022/12/22 15:42:47;;;;;;;11.27;3.00;;;6.60;99.90;;;;;;5095891;28;20513;-65
2022/12/22 15:45:13;;;;;;;5.20;3.25;;;6.60;99.90;;;;;;5088864;28;20072;-66
2022/12/22 15:47:43;;;;;;;6.43;3.38;;;6.50;99.90;;;;;;5089283;28;20682;-65
2022/12/22 15:50:18;;;;;;;5.32;3.10;;;6.50;99.90;;;;;;5095721;28;20101;-65
2022/12/22 15:52:56;;;;;;;8.60;3.93;;;6.50;99.90;;;;;;5094422;28;20067;-66
2022/12/22 15:55:22;;;;;;;8.45;3.88;;;6.50;99.90;;;;;;5097475;27;20269;-65
2022/12/22 15:57:50;;;;;;;7.78;3.60;;;6.50;99.90;;;;;;5100649;28;20100;-66
2022/12/22 16:00:17;;;;;;;7.07;3.90;;;6.50;99.90;;;;;;5099475;27;21069;-66
2022/12/22 16:02:43;;;;;;;6.40;3.80;;;6.50;99.90;;;;;;5108717;27;20036;-66
2022/12/22 16:05:10;;;;;;;6.72;3.92;;;6.40;99.90;;;;;;5104953;27;20483;-66
2022/12/22 16:07:37;;;;;;;7.20;4.53;;;6.40;99.90;;;;;;5108226;27;20051;-66
2022/12/22 16:10:04;;;;;;;8.77;5.10;;;6.40;99.90;;;;;;5100654;27;20127;-66
2022/12/22 16:12:31;;;;;;;10.35;5.03;;;6.30;99.90;;;;;;5107893;27;20054;-65
2022/12/22 16:14:59;;;;;;;8.52;4.60;;;6.20;99.90;;;;;;5093872;28;20032;-67
2022/12/22 16:17:27;;;;;;;13.80;5.05;;;6.10;99.90;;;;;;5112790;27;20092;-67
2022/12/22 16:19:53;;;;;;;12.23;5.32;;;6.00;99.90;;;;;;5099958;28;20048;-67
2022/12/22 16:22:28;;;;;;;10.38;5.85;;;6.00;99.90;;;;;;5110850;27;20031;-65
2022/12/22 16:24:54;;;;;;;6.75;4.57;;;5.90;99.90;;;;;;5104909;28;20368;-66
2022/12/22 16:27:21;;;;;;;10.45;5.47;;;5.90;99.90;;;;;;5108370;27;20456;-64
2022/12/22 16:29:51;;;;;;;6.07;4.50;;;5.90;99.90;;;;;;5099308;27;20464;-64
2022/12/22 16:32:28;;;;;;;7.32;4.43;;;5.90;99.90;;;;;;5114675;27;20088;-66
2022/12/22 16:35:14;;;;;;;8.38;5.20;;;5.90;99.90;;;;;;5115031;27;20051;-65
2022/12/22 16:37:40;;;;;;;14.02;4.85;;;5.80;99.90;;;;;;5112975;27;20043;-65
2022/12/22 16:40:07;;;;;;;9.05;5.05;;;5.80;99.90;;;;;;5117217;27;20050;-65
2022/12/22 16:42:33;;;;;;;6.95;4.50;;;5.80;99.90;;;;;;5111486;27;20560;-65
2022/12/22 16:44:59;;;;;;;9.50;5.70;;;5.80;99.90;;;;;;5123848;27;20074;-66
2022/12/22 16:47:30;;;;;;;6.00;4.35;;;5.70;99.90;;;;;;5111250;27;20049;-65
2022/12/22 16:49:55;;;;;;;7.03;4.38;;;5.70;99.90;;;;;;5120170;27;20118;-64
2022/12/22 16:52:35;;;;;;;6.85;4.63;;;5.60;99.90;;;;;;5112405;27;20123;-66
2022/12/22 16:55:01;;;;;;;7.82;4.68;;;5.60;99.90;;;;;;5112096;27;20067;-66
2022/12/22 16:57:26;;;;;;;8.55;5.07;;;5.70;99.90;;;;;;5105871;27;20079;-67
2022/12/22 16:59:52;;;;;;;;;;;5.60;99.90;;;;;;5118356;27;20039;-66
2022/12/22 17:02:26;;;;;;;7.30;4.28;;;5.70;99.90;;;;;;5108230;27;20451;-66
2022/12/22 17:04:53;;;;;;;8.65;5.30;;;5.70;99.90;;;;;;5113246;27;20074;-67
2022/12/22 17:07:20;;;;;;;9.63;5.10;;;5.70;99.90;;;;;;5109850;27;20491;-66
2022/12/22 17:09:51;;;;;;;10.65;5.45;;;5.80;99.90;;;;;;5111676;27;20053;-67